Time;durP1;ratioP1;P1;durP2;ratioP2;P2;SDS_P1;SDS_P2;PMS_P1;PMS_P2;Temp;Humidity;BMP_temperature;BMP_pressure;BME280_temperature;BME280_humidity;BME280_pressure;Samples;Min_cycle;Max_cycle;Signal;HPM_P1;HPM_P2
2023/07/18 00:00:44;;;;;;;2.63;1.60;;;24.50;50.00;;;;;;5067989;28;20191;-86
2023/07/18 00:03:09;;;;;;;1.67;1.57;;;24.50;50.00;;;;;;5062644;28;20536;-86
2023/07/18 00:05:40;;;;;;;1.60;1.50;;;24.50;50.00;;;;;;5066800;28;20286;-86
2023/07/18 00:08:06;;;;;;;2.30;1.90;;;24.50;50.00;;;;;;5064935;28;20211;-87
2023/07/18 00:10:35;;;;;;;1.93;1.63;;;24.50;50.00;;;;;;5063409;28;20167;-87
2023/07/18 00:13:02;;;;;;;2.43;1.80;;;24.40;50.00;;;;;;5065846;28;20501;-87
2023/07/18 00:15:28;;;;;;;1.77;1.50;;;24.50;50.00;;;;;;5059252;28;20179;-87
2023/07/18 00:17:54;;;;;;;2.10;1.90;;;24.50;50.10;;;;;;5069544;28;20250;-86
2023/07/18 00:20:24;;;;;;;2.87;2.10;;;24.40;50.00;;;;;;5066405;28;20278;-86
2023/07/18 00:22:52;;;;;;;2.13;1.53;;;24.40;50.10;;;;;;5068341;28;20488;-86
2023/07/18 00:25:20;;;;;;;1.73;1.60;;;24.40;50.10;;;;;;5062754;28;20215;-86
2023/07/18 00:27:47;;;;;;;3.73;1.73;;;24.40;50.10;;;;;;5085230;28;20175;-87
2023/07/18 00:30:17;;;;;;;1.80;1.47;;;24.40;50.00;;;;;;5062349;28;20191;-87
2023/07/18 00:32:47;;;;;;;2.10;1.70;;;24.40;50.00;;;;;;5064185;28;20203;-87
2023/07/18 00:35:14;;;;;;;2.50;1.67;;;24.40;50.10;;;;;;5079011;28;20184;-87
2023/07/18 00:37:40;;;;;;;1.90;1.70;;;24.30;50.10;;;;;;5065452;28;20180;-87
2023/07/18 00:40:10;;;;;;;2.40;1.60;;;24.40;50.10;;;;;;5080331;28;20206;-87
2023/07/18 00:42:41;;;;;;;1.60;1.50;;;24.30;50.00;;;;;;5047040;28;20223;-87
2023/07/18 00:45:11;;;;;;;2.13;1.70;;;24.40;50.10;;;;;;5064552;28;20712;-87
2023/07/18 00:47:41;;;;;;;1.60;1.50;;;24.30;50.10;;;;;;5064781;28;20171;-87
2023/07/18 00:50:14;;;;;;;2.27;1.80;;;24.30;50.10;;;;;;5066057;28;20214;-87
2023/07/18 00:52:47;;;;;;;2.00;1.43;;;24.30;50.10;;;;;;5067280;28;20167;-87
2023/07/18 00:55:13;;;;;;;1.97;1.77;;;24.30;50.10;;;;;;5060724;28;20211;-87
2023/07/18 00:57:41;;;;;;;2.10;1.60;;;24.30;50.10;;;;;;5067400;28;20179;-87
2023/07/18 01:00:12;;;;;;;2.20;1.80;;;24.20;50.10;;;;;;5065750;28;20175;-87
2023/07/18 01:02:39;;;;;;;1.93;1.70;;;24.30;50.10;;;;;;5067090;28;20450;-87
2023/07/18 01:05:09;;;;;;;2.00;1.57;;;24.30;50.10;;;;;;5065644;28;20536;-87
2023/07/18 01:07:37;;;;;;;1.67;1.53;;;24.20;50.10;;;;;;5062437;28;20468;-87
2023/07/18 01:10:23;;;;;;;1.60;1.50;;;24.20;50.10;;;;;;5065891;28;20494;-87
2023/07/18 01:12:50;;;;;;;1.77;1.60;;;24.20;50.10;;;;;;5063104;28;20183;-87
2023/07/18 01:15:20;;;;;;;2.00;1.60;;;24.20;50.10;;;;;;5082712;28;20186;-87
2023/07/18 01:17:46;;;;;;;4.17;1.70;;;24.20;50.10;;;;;;5066224;28;20250;-87
2023/07/18 01:20:24;;;;;;;1.93;1.47;;;24.20;50.50;;;;;;5082299;28;20246;-87
2023/07/18 01:22:53;;;;;;;1.97;1.67;;;24.10;50.10;;;;;;5064048;28;20306;-87
2023/07/18 01:25:19;;;;;;;2.00;1.60;;;24.10;50.10;;;;;;5064775;28;20185;-87
2023/07/18 01:27:49;;;;;;;1.77;1.50;;;24.10;50.10;;;;;;5062859;28;20207;-87
2023/07/18 01:30:17;;;;;;;2.10;1.70;;;24.10;50.10;;;;;;5081191;28;20573;-87
2023/07/18 01:32:48;;;;;;;2.50;1.70;;;24.10;50.10;;;;;;5063704;28;20191;-87
2023/07/18 01:35:15;;;;;;;2.43;1.60;;;24.10;50.10;;;;;;5078390;28;20199;-87
2023/07/18 01:37:51;;;;;;;2.03;1.77;;;24.10;50.10;;;;;;5064505;28;20540;-87
2023/07/18 01:40:22;;;;;;;1.60;1.50;;;24.10;50.10;;;;;;5066623;28;20203;-87
2023/07/18 01:42:53;;;;;;;1.80;1.70;;;24.10;50.10;;;;;;5060140;28;20184;-87
2023/07/18 01:45:20;;;;;;;1.77;1.60;;;24.10;50.20;;;;;;5064952;28;20545;-87
2023/07/18 01:47:50;;;;;;;2.30;1.60;;;24.00;50.10;;;;;;5077537;28;20193;-87
2023/07/18 01:50:16;;;;;;;2.33;1.60;;;24.00;50.10;;;;;;5061360;28;20179;-87
2023/07/18 01:52:46;;;;;;;1.90;1.70;;;24.00;50.10;;;;;;5062145;28;20321;-87
2023/07/18 01:55:12;;;;;;;1.50;1.40;;;24.00;50.10;;;;;;5061794;28;20454;-87
2023/07/18 01:57:40;;;;;;;2.20;1.87;;;24.00;50.10;;;;;;5062854;28;20180;-87
2023/07/18 02:00:12;;;;;;;1.67;1.47;;;24.00;50.10;;;;;;5062081;28;20214;-87
2023/07/18 02:02:41;;;;;;;1.80;1.70;;;24.00;50.10;;;;;;5062593;28;20195;-87
2023/07/18 02:05:08;;;;;;;1.70;1.60;;;24.00;50.10;;;;;;5065185;28;20175;-87
2023/07/18 02:07:34;;;;;;;1.90;1.70;;;24.00;50.10;;;;;;5060125;28;20400;-87
2023/07/18 02:10:03;;;;;;;1.93;1.60;;;24.00;50.20;;;;;;5064991;28;20316;-87
2023/07/18 02:12:28;;;;;;;2.10;1.60;;;23.90;50.10;;;;;;5059198;28;20472;-87
2023/07/18 02:14:54;;;;;;;2.43;1.70;;;23.90;50.10;;;;;;5061718;28;20591;-87
2023/07/18 02:17:21;;;;;;;2.00;1.80;;;23.90;50.10;;;;;;5063388;28;20202;-87
2023/07/18 02:19:46;;;;;;;2.40;1.70;;;23.90;50.10;;;;;;5063264;28;20175;-87
2023/07/18 02:22:12;;;;;;;2.30;2.10;;;23.90;50.10;;;;;;5080093;28;20180;-87
2023/07/18 02:24:41;;;;;;;1.60;1.50;;;23.90;50.10;;;;;;5062736;28;20184;-87
2023/07/18 02:27:09;;;;;;;1.63;1.53;;;23.90;50.10;;;;;;5064343;28;20250;-87
2023/07/18 02:29:38;;;;;;;1.60;1.50;;;23.90;50.10;;;;;;5062429;28;20203;-87
2023/07/18 02:32:06;;;;;;;1.70;1.60;;;23.90;50.10;;;;;;5065478;28;20169;-87
2023/07/18 02:34:39;;;;;;;2.23;1.73;;;23.90;50.10;;;;;;5060252;28;20428;-87
2023/07/18 02:37:05;;;;;;;1.87;1.70;;;23.90;50.10;;;;;;5068126;28;20564;-87
2023/07/18 02:39:35;;;;;;;2.00;1.80;;;23.80;50.10;;;;;;5088220;28;20180;-87
2023/07/18 02:42:02;;;;;;;1.93;1.80;;;23.80;50.10;;;;;;5069134;28;20186;-87
2023/07/18 02:44:31;;;;;;;1.60;1.50;;;23.80;50.10;;;;;;5067174;28;20267;-87
2023/07/18 02:46:57;;;;;;;2.40;1.93;;;23.80;50.10;;;;;;5066479;28;20180;-87
2023/07/18 02:49:25;;;;;;;2.03;1.60;;;23.80;50.10;;;;;;5068224;28;20200;-87
2023/07/18 02:51:51;;;;;;;1.67;1.50;;;23.80;50.10;;;;;;5067999;28;20172;-87
2023/07/18 02:54:17;;;;;;;1.83;1.60;;;23.80;50.10;;;;;;5083865;28;20182;-87
2023/07/18 02:56:48;;;;;;;1.80;1.63;;;23.80;50.10;;;;;;5070115;28;20195;-87
2023/07/18 02:59:14;;;;;;;1.90;1.70;;;23.80;50.10;;;;;;5067278;28;20240;-88
2023/07/18 03:01:44;;;;;;;1.90;1.60;;;23.80;50.10;;;;;;5066731;28;20604;-87
2023/07/18 03:04:10;;;;;;;2.23;1.70;;;23.80;50.10;;;;;;5062323;28;20273;-87
2023/07/18 03:06:38;;;;;;;1.60;1.50;;;23.70;50.10;;;;;;5062630;28;20179;-87
2023/07/18 03:09:05;;;;;;;1.80;1.63;;;23.70;50.10;;;;;;5065199;28;20228;-87
2023/07/18 03:11:31;;;;;;;1.60;1.50;;;23.70;50.10;;;;;;5060653;28;20168;-87
2023/07/18 03:13:57;;;;;;;1.87;1.43;;;23.70;50.10;;;;;;5082353;28;20183;-87
2023/07/18 03:16:25;;;;;;;1.70;1.60;;;23.70;50.10;;;;;;5064073;28;20168;-87
2023/07/18 03:18:54;;;;;;;2.03;1.83;;;23.70;50.10;;;;;;5067977;28;20183;-87
2023/07/18 03:21:20;;;;;;;1.80;1.60;;;23.70;50.10;;;;;;5065029;28;20180;-87
2023/07/18 03:23:46;;;;;;;1.93;1.77;;;23.60;50.10;;;;;;5084983;28;20189;-87
2023/07/18 03:26:12;;;;;;;1.97;1.67;;;23.70;50.10;;;;;;5064630;28;20237;-87
2023/07/18 03:28:40;;;;;;;1.97;1.60;;;23.70;50.10;;;;;;5065417;28;20211;-87
2023/07/18 03:31:06;;;;;;;2.40;1.80;;;23.70;50.10;;;;;;5064072;28;20194;-87
2023/07/18 03:33:34;;;;;;;1.70;1.60;;;23.70;50.00;;;;;;5065987;28;20192;-87
2023/07/18 03:36:04;;;;;;;2.17;1.70;;;23.60;50.00;;;;;;5067049;28;20175;-87
2023/07/18 03:38:30;;;;;;;1.90;1.60;;;23.60;50.00;;;;;;5062938;28;20557;-87
2023/07/18 03:40:58;;;;;;;1.47;1.37;;;23.60;50.00;;;;;;5066476;28;20237;-87
2023/07/18 03:43:24;;;;;;;2.07;1.80;;;23.60;50.40;;;;;;5067793;28;20178;-87
2023/07/18 03:45:51;;;;;;;1.70;1.60;;;23.60;50.00;;;;;;5065006;28;20180;-87
2023/07/18 03:48:17;;;;;;;1.73;1.50;;;23.60;50.40;;;;;;5066705;28;20214;-87
2023/07/18 03:50:45;;;;;;;2.10;1.73;;;23.60;50.00;;;;;;5068386;28;20237;-87
2023/07/18 03:53:14;;;;;;;1.87;1.67;;;23.50;50.00;;;;;;5065635;28;20259;-87
2023/07/18 03:55:43;;;;;;;2.10;1.57;;;23.60;50.10;;;;;;5062274;28;20217;-87
2023/07/18 03:58:08;;;;;;;1.80;1.70;;;23.60;50.00;;;;;;5063440;28;20211;-87
2023/07/18 04:00:34;;;;;;;2.00;1.80;;;23.50;50.10;;;;;;5068507;28;20202;-87
2023/07/18 04:03:03;;;;;;;1.80;1.70;;;23.50;50.10;;;;;;5061222;28;20168;-87
2023/07/18 04:05:31;;;;;;;1.90;1.53;;;23.50;50.10;;;;;;5078307;28;20363;-87
2023/07/18 04:07:59;;;;;;;1.70;1.60;;;23.50;50.00;;;;;;5061134;28;20308;-87
2023/07/18 04:10:25;;;;;;;2.23;1.77;;;23.50;50.10;;;;;;5059552;28;20511;-87
2023/07/18 04:12:51;;;;;;;1.87;1.77;;;23.50;50.10;;;;;;5057998;28;20574;-87
2023/07/18 04:15:16;;;;;;;3.60;1.70;;;23.50;50.10;;;;;;5060825;28;20213;-87
2023/07/18 04:17:45;;;;;;;1.77;1.43;;;23.50;50.10;;;;;;5061722;28;20168;-87
2023/07/18 04:20:14;;;;;;;2.57;1.57;;;23.50;50.20;;;;;;5061372;28;20203;-87
2023/07/18 04:22:42;;;;;;;1.70;1.60;;;23.40;50.10;;;;;;5064810;28;20180;-88
2023/07/18 04:25:09;;;;;;;1.97;1.80;;;23.40;50.10;;;;;;5067973;28;20172;-87
2023/07/18 04:27:34;;;;;;;1.90;1.70;;;23.40;50.20;;;;;;5063651;28;20567;-87
2023/07/18 04:30:00;;;;;;;1.73;1.63;;;23.40;50.20;;;;;;5063569;28;20305;-87
2023/07/18 04:32:26;;;;;;;3.73;1.90;;;23.50;50.20;;;;;;5081715;28;20194;-87
2023/07/18 04:34:55;;;;;;;2.03;1.53;;;23.50;50.10;;;;;;5061593;28;20175;-87
2023/07/18 04:37:20;;;;;;;2.00;1.40;;;23.50;50.10;;;;;;5059296;28;20180;-87
2023/07/18 04:39:46;;;;;;;1.70;1.60;;;23.50;50.10;;;;;;5065081;28;20167;-87
2023/07/18 04:42:15;;;;;;;1.90;1.50;;;23.40;50.20;;;;;;5078148;28;20676;-87
2023/07/18 04:44:43;;;;;;;2.03;1.83;;;23.40;50.10;;;;;;5059771;28;20179;-87
2023/07/18 04:47:12;;;;;;;1.93;1.73;;;23.40;50.20;;;;;;5071041;28;20176;-87
2023/07/18 04:49:38;;;;;;;1.70;1.60;;;23.40;50.10;;;;;;5060792;28;20199;-87
2023/07/18 04:52:07;;;;;;;2.50;2.07;;;23.50;50.00;;;;;;5066014;28;20184;-87
2023/07/18 04:54:33;;;;;;;1.70;1.60;;;23.50;50.00;;;;;;5060360;28;20566;-88
2023/07/18 04:57:01;;;;;;;1.90;1.70;;;23.60;49.90;;;;;;5079767;28;20182;-87
2023/07/18 04:59:27;;;;;;;2.13;1.53;;;23.70;49.80;;;;;;5059339;28;20180;-87
2023/07/18 05:01:56;;;;;;;2.57;1.70;;;23.70;49.80;;;;;;5081559;28;20172;-87
2023/07/18 05:04:25;;;;;;;1.90;1.70;;;23.70;49.70;;;;;;5059204;28;20187;-88
2023/07/18 05:06:51;;;;;;;2.00;1.67;;;23.70;49.70;;;;;;5061435;28;20286;-87
2023/07/18 05:09:17;;;;;;;2.17;1.73;;;23.70;49.80;;;;;;5058979;28;20238;-87
2023/07/18 05:11:47;;;;;;;2.17;1.70;;;23.70;49.80;;;;;;5058341;28;20344;-88
2023/07/18 05:14:13;;;;;;;2.07;1.60;;;23.70;49.80;;;;;;5067827;28;20463;-88
2023/07/18 05:16:39;;;;;;;1.97;1.60;;;23.70;49.80;;;;;;5058839;28;20176;-88
2023/07/18 05:19:08;;;;;;;2.70;1.80;;;23.80;49.70;;;;;;5061051;28;20275;-88
2023/07/18 05:21:36;;;;;;;1.97;1.60;;;23.90;49.70;;;;;;5057025;28;20295;-88
2023/07/18 05:24:02;;;;;;;2.23;1.67;;;23.90;49.60;;;;;;5058168;28;20364;-88
2023/07/18 05:26:30;;;;;;;1.90;1.70;;;23.90;49.60;;;;;;5057026;28;20258;-88
2023/07/18 05:28:57;;;;;;;1.70;1.57;;;23.90;49.50;;;;;;5056265;28;20268;-88
2023/07/18 05:31:26;;;;;;;2.50;1.80;;;23.90;49.50;;;;;;5056316;28;20188;-88
2023/07/18 05:33:51;;;;;;;2.00;1.70;;;24.00;49.60;;;;;;5057407;28;20405;-88
2023/07/18 05:36:17;;;;;;;1.70;1.60;;;24.00;49.50;;;;;;5057720;28;20578;-88
2023/07/18 05:38:46;;;;;;;1.90;1.70;;;24.00;49.50;;;;;;5057210;28;20176;-88
2023/07/18 05:41:15;;;;;;;2.00;1.63;;;24.00;49.60;;;;;;5055718;28;20180;-88
2023/07/18 05:43:43;;;;;;;3.00;1.70;;;24.00;49.60;;;;;;5055405;28;20188;-88
2023/07/18 05:46:12;;;;;;;3.20;1.70;;;24.00;49.50;;;;;;5056199;28;20176;-88
2023/07/18 05:48:38;;;;;;;2.20;1.70;;;24.10;49.60;;;;;;5057296;28;20199;-88
2023/07/18 05:51:07;;;;;;;1.50;1.37;;;24.10;49.50;;;;;;5065076;28;20195;-88
2023/07/18 05:53:33;;;;;;;2.53;1.70;;;24.10;49.50;;;;;;5056506;28;20518;-88
2023/07/18 05:56:04;;;;;;;1.70;1.60;;;24.20;49.50;;;;;;5057923;28;20176;-88
2023/07/18 05:58:30;;;;;;;1.83;1.60;;;24.20;49.40;;;;;;5058771;28;20289;-88
2023/07/18 06:00:59;;;;;;;2.60;1.60;;;24.20;49.40;;;;;;5058581;28;20271;-87
2023/07/18 06:03:24;;;;;;;1.70;1.60;;;24.20;49.40;;;;;;5060068;28;20186;-88
2023/07/18 06:05:54;;;;;;;2.80;1.70;;;24.20;49.30;;;;;;5056349;28;20184;-88
2023/07/18 06:08:21;;;;;;;3.57;1.90;;;24.20;49.30;;;;;;5052653;28;20181;-88
2023/07/18 06:10:47;;;;;;;3.27;1.60;;;24.30;49.30;;;;;;5057478;28;20168;-88
2023/07/18 06:13:16;;;;;;;2.87;2.00;;;24.20;49.30;;;;;;5063427;28;20194;-88
2023/07/18 06:15:49;;;;;;;2.43;1.87;;;24.30;49.70;;;;;;5059125;28;20285;-88
2023/07/18 06:18:15;;;;;;;3.10;2.10;;;24.30;49.30;;;;;;5061625;28;20191;-88
2023/07/18 06:20:43;;;;;;;3.97;1.70;;;24.40;49.30;;;;;;5060663;28;20213;-87
2023/07/18 06:23:09;;;;;;;2.87;2.20;;;24.40;49.20;;;;;;5059401;28;20188;-87
2023/07/18 06:25:35;;;;;;;3.40;2.10;;;24.40;49.20;;;;;;5077415;28;20217;-88
2023/07/18 06:28:02;;;;;;;2.10;1.60;;;24.50;49.20;;;;;;5057470;28;20219;-88
2023/07/18 06:30:28;;;;;;;5.13;2.10;;;24.50;49.30;;;;;;5059931;28;20679;-88
2023/07/18 06:32:55;;;;;;;2.80;2.07;;;24.50;49.70;;;;;;5057006;28;20187;-88
2023/07/18 06:35:20;;;;;;;5.00;2.10;;;24.50;49.40;;;;;;5056877;28;20238;-88
2023/07/18 06:37:46;;;;;;;4.57;2.00;;;24.60;49.40;;;;;;5076056;28;20357;-87
2023/07/18 06:40:12;;;;;;;3.47;1.90;;;24.60;49.40;;;;;;5057550;28;20180;-88
2023/07/18 06:42:43;;;;;;;3.27;2.10;;;24.70;49.30;;;;;;5061081;28;20581;-88
2023/07/18 06:45:12;;;;;;;2.43;1.90;;;24.80;49.40;;;;;;5037636;28;20382;-87
2023/07/18 06:47:38;;;;;;;3.97;1.80;;;24.80;49.50;;;;;;5058599;28;20507;-88
2023/07/18 06:50:07;;;;;;;3.10;2.00;;;24.90;49.50;;;;;;5058035;28;20582;-88
2023/07/18 06:52:33;;;;;;;3.57;1.80;;;24.90;49.50;;;;;;5059587;28;20210;-88
2023/07/18 06:55:01;;;;;;;3.43;2.13;;;25.00;49.40;;;;;;5055167;28;20577;-88
2023/07/18 06:57:27;;;;;;;2.20;2.00;;;25.00;49.40;;;;;;5057158;28;20292;-88
2023/07/18 06:59:53;;;;;;;4.03;1.80;;;25.10;49.40;;;;;;5058825;28;20191;-88
2023/07/18 07:02:19;;;;;;;2.67;1.93;;;25.10;49.40;;;;;;5055034;28;20214;-87
2023/07/18 07:04:44;;;;;;;2.43;1.80;;;25.10;49.40;;;;;;5052824;28;20559;-87
2023/07/18 07:07:10;;;;;;;2.33;2.00;;;25.10;49.40;;;;;;5072639;28;20547;-87
2023/07/18 07:09:38;;;;;;;2.73;2.07;;;25.20;49.40;;;;;;5053365;28;20257;-88
2023/07/18 07:12:07;;;;;;;2.53;1.87;;;25.20;49.40;;;;;;5053966;28;20177;-88
2023/07/18 07:14:33;;;;;;;2.97;2.00;;;25.20;49.30;;;;;;5061821;28;20235;-87
2023/07/18 07:17:02;;;;;;;2.30;1.60;;;25.30;49.30;;;;;;5058026;28;20184;-87
2023/07/18 07:19:30;;;;;;;2.73;1.80;;;25.30;49.20;;;;;;5054878;28;20650;-88
2023/07/18 07:21:59;;;;;;;3.10;2.00;;;25.40;49.30;;;;;;5055567;28;20215;-87
2023/07/18 07:24:25;;;;;;;2.27;1.83;;;25.40;49.20;;;;;;5054052;28;20179;-87
2023/07/18 07:26:53;;;;;;;2.07;1.70;;;25.40;49.10;;;;;;5057835;28;20202;-87
2023/07/18 07:29:19;;;;;;;2.80;1.87;;;25.50;49.20;;;;;;5060779;28;20208;-87
2023/07/18 07:31:44;;;;;;;2.93;1.90;;;25.50;49.10;;;;;;5056892;28;20250;-87
2023/07/18 07:34:13;;;;;;;1.77;1.67;;;25.50;49.10;;;;;;5057944;28;20199;-87
2023/07/18 07:36:41;;;;;;;2.70;1.87;;;25.60;49.10;;;;;;5075784;28;20187;-88
2023/07/18 07:39:09;;;;;;;1.93;1.63;;;25.60;49.00;;;;;;5055973;28;20183;-87
2023/07/18 07:41:36;;;;;;;2.30;1.90;;;25.70;49.00;;;;;;5064861;28;20193;-89
2023/07/18 07:44:02;;;;;;;2.63;1.60;;;25.80;48.90;;;;;;5054224;28;20274;-88
2023/07/18 07:46:28;;;;;;;2.77;1.70;;;25.80;48.90;;;;;;5056188;28;20194;-88
2023/07/18 07:48:53;;;;;;;2.67;2.00;;;25.90;48.90;;;;;;5054625;28;20230;-87
2023/07/18 07:51:22;;;;;;;2.10;1.80;;;26.00;49.20;;;;;;5056096;28;20270;-87
2023/07/18 07:53:47;;;;;;;2.13;1.70;;;26.00;48.70;;;;;;5057497;28;20172;-87
2023/07/18 07:56:13;;;;;;;2.83;1.97;;;26.10;48.70;;;;;;5055949;28;20376;-87
2023/07/18 07:58:42;;;;;;;2.53;1.80;;;26.20;48.60;;;;;;5056316;28;20233;-88
2023/07/18 08:01:10;;;;;;;2.87;1.70;;;26.30;48.60;;;;;;5069636;28;20211;-87
2023/07/18 08:03:37;;;;;;;3.40;1.87;;;26.40;48.60;;;;;;5054589;28;20191;-88
2023/07/18 08:06:05;;;;;;;2.23;1.90;;;26.40;48.50;;;;;;5057104;28;20186;-87
2023/07/18 08:08:34;;;;;;;2.67;1.67;;;26.50;48.50;;;;;;5055055;28;20297;-87
2023/07/18 08:11:03;;;;;;;2.92;1.58;;;26.60;48.50;;;;;;5056311;28;20541;-87
2023/07/18 08:13:29;;;;;;;3.40;1.77;;;26.60;48.40;;;;;;5053979;28;20203;-87
2023/07/18 08:15:55;;;;;;;3.03;1.75;;;26.70;48.20;;;;;;5051049;28;20467;-87
2023/07/18 08:18:21;;;;;;;3.05;1.85;;;26.80;48.20;;;;;;5055039;28;20442;-88
2023/07/18 08:20:47;;;;;;;2.35;1.90;;;26.90;48.10;;;;;;5049505;28;20536;-88
2023/07/18 08:23:14;;;;;;;2.40;1.77;;;27.00;48.00;;;;;;5058256;28;20263;-87
2023/07/18 08:25:45;;;;;;;1.80;1.60;;;27.10;47.90;;;;;;5053523;28;20660;-88
2023/07/18 08:28:13;;;;;;;1.90;1.50;;;27.20;47.90;;;;;;5072567;28;20509;-87
2023/07/18 08:30:40;;;;;;;3.25;1.65;;;27.30;47.80;;;;;;5056992;28;20183;-87
2023/07/18 08:33:09;;;;;;;2.78;1.60;;;27.30;47.70;;;;;;5057731;28;20196;-87
2023/07/18 08:35:37;;;;;;;1.85;1.50;;;27.40;47.70;;;;;;5055687;28;20167;-87
2023/07/18 08:38:04;;;;;;;2.15;1.70;;;27.40;47.60;;;;;;5055059;28;20182;-88
2023/07/18 08:40:30;;;;;;;2.38;1.70;;;27.60;47.50;;;;;;5050660;28;20244;-87
2023/07/18 08:42:56;;;;;;;2.10;1.75;;;27.70;47.40;;;;;;5052685;28;20728;-87
2023/07/18 08:45:24;;;;;;;2.45;1.65;;;27.80;47.30;;;;;;5068963;28;20290;-88
2023/07/18 08:47:56;;;;;;;2.38;1.80;;;27.80;47.30;;;;;;5051925;28;20188;-87
2023/07/18 08:50:26;;;;;;;2.10;1.88;;;27.80;47.30;;;;;;5056277;28;20265;-87
2023/07/18 08:52:54;;;;;;;2.00;1.75;;;27.80;47.30;;;;;;5055520;28;20179;-88
2023/07/18 08:55:21;;;;;;;1.77;1.65;;;27.90;47.30;;;;;;5053014;28;20207;-88
2023/07/18 08:57:50;;;;;;;2.58;1.73;;;27.90;47.20;;;;;;5053027;28;20186;-88
2023/07/18 09:00:20;;;;;;;2.30;1.77;;;28.00;47.30;;;;;;5053420;28;20324;-88
2023/07/18 09:02:49;;;;;;;2.20;1.77;;;28.00;47.20;;;;;;5054151;28;20182;-88
2023/07/18 09:05:37;;;;;;;2.25;1.70;;;28.10;47.20;;;;;;5045263;28;20184;-88
2023/07/18 09:08:05;;;;;;;1.85;1.45;;;28.10;47.10;;;;;;5053676;28;20550;-88
2023/07/18 09:10:35;;;;;;;1.70;1.60;;;28.20;47.10;;;;;;5047565;28;20303;-88
2023/07/18 09:13:06;;;;;;;3.08;1.80;;;28.20;47.00;;;;;;5065118;28;20179;-88
2023/07/18 09:15:34;;;;;;;2.22;1.90;;;28.30;47.00;;;;;;5050180;28;20422;-88
2023/07/18 09:18:03;;;;;;;2.83;1.63;;;28.30;47.00;;;;;;5049813;28;20288;-88
2023/07/18 09:20:33;;;;;;;1.95;1.58;;;28.30;46.90;;;;;;5054350;28;20325;-88
2023/07/18 09:23:03;;;;;;;1.83;1.60;;;28.30;47.00;;;;;;5051478;28;20180;-88
2023/07/18 09:25:30;;;;;;;2.83;1.50;;;28.30;46.90;;;;;;5056047;28;20175;-87
2023/07/18 09:27:58;;;;;;;1.60;1.50;;;28.30;47.00;;;;;;5053075;28;20177;-88
2023/07/18 09:30:34;;;;;;;1.93;1.60;;;28.30;47.00;;;;;;5044905;28;20202;-88
2023/07/18 09:33:02;;;;;;;1.90;1.60;;;28.40;47.10;;;;;;5055075;28;20302;-88
2023/07/18 09:35:31;;;;;;;1.85;1.58;;;28.40;47.00;;;;;;5047688;28;20180;-88
2023/07/18 09:38:00;;;;;;;2.65;1.50;;;28.40;47.00;;;;;;5050535;28;20203;-88
2023/07/18 09:40:29;;;;;;;1.88;1.40;;;28.40;46.90;;;;;;5047427;28;20609;-89
2023/07/18 09:42:55;;;;;;;2.10;1.60;;;28.50;46.90;;;;;;5051458;28;20195;-88
2023/07/18 09:45:23;;;;;;;1.63;1.50;;;28.60;46.90;;;;;;5055040;28;20175;-88
2023/07/18 09:47:51;;;;;;;2.67;1.45;;;28.70;46.80;;;;;;5053476;28;20261;-88
2023/07/18 09:50:20;;;;;;;1.50;1.40;;;28.70;46.80;;;;;;5053312;28;20175;-87
2023/07/18 09:52:49;;;;;;;1.63;1.42;;;28.70;46.80;;;;;;5055638;28;20192;-88
2023/07/18 09:55:26;;;;;;;2.08;1.52;;;28.70;46.80;;;;;;5056501;28;20176;-89
2023/07/18 09:57:55;;;;;;;1.75;1.30;;;28.80;46.80;;;;;;5056816;28;20183;-89
2023/07/18 10:00:23;;;;;;;1.52;1.23;;;28.70;46.80;;;;;;5047409;28;20215;-88
2023/07/18 10:02:49;;;;;;;1.67;1.52;;;28.80;46.90;;;;;;5056028;28;20447;-88
2023/07/18 10:05:16;;;;;;;2.13;1.60;;;28.80;46.90;;;;;;5055878;28;20182;-88
2023/07/18 10:07:43;;;;;;;2.35;1.45;;;28.70;46.90;;;;;;5059510;28;20313;-88
2023/07/18 10:10:10;;;;;;;2.97;1.38;;;28.80;46.90;;;;;;5057806;28;20191;-89
2023/07/18 10:12:54;;;;;;;2.58;1.70;;;28.80;46.90;;;;;;5055418;28;20208;-88
2023/07/18 10:15:21;;;;;;;2.22;1.50;;;28.80;46.90;;;;;;5059090;28;20306;-88
2023/07/18 10:17:56;;;;;;;2.28;1.30;;;28.80;46.90;;;;;;5054622;28;20372;-88
2023/07/18 10:20:27;;;;;;;3.22;1.27;;;28.80;46.90;;;;;;5072095;28;20617;-88
2023/07/18 10:23:00;;;;;;;2.58;1.40;;;28.80;47.00;;;;;;5060048;28;20202;-89
2023/07/18 10:25:29;;;;;;;1.50;1.20;;;28.70;47.00;;;;;;5055304;28;20212;-88
2023/07/18 10:27:57;;;;;;;2.10;1.42;;;28.70;47.00;;;;;;5067631;28;20456;-88
2023/07/18 10:30:25;;;;;;;2.33;1.52;;;28.70;47.00;;;;;;5055434;28;20184;-89
2023/07/18 10:33:01;;;;;;;1.50;1.40;;;28.80;47.10;;;;;;5054388;28;20192;-88
2023/07/18 10:35:27;;;;;;;2.28;1.48;;;28.70;47.10;;;;;;5057491;28;20184;-89
2023/07/18 10:38:02;;;;;;;2.10;1.60;;;28.70;47.10;;;;;;5056279;28;20184;-88
2023/07/18 10:40:43;;;;;;;1.58;1.42;;;28.80;47.10;;;;;;5059859;28;20207;-89
2023/07/18 10:43:16;;;;;;;1.60;1.48;;;28.80;47.10;;;;;;5059264;28;20222;-88
2023/07/18 10:45:45;;;;;;;1.65;1.33;;;28.80;47.20;;;;;;5052316;28;20341;-89
2023/07/18 10:48:20;;;;;;;2.20;1.67;;;28.70;47.20;;;;;;5058841;28;20184;-88
2023/07/18 10:50:48;;;;;;;2.58;1.80;;;28.70;47.20;;;;;;5054558;28;20176;-88
2023/07/18 10:53:18;;;;;;;2.97;1.80;;;28.60;47.20;;;;;;5057688;28;20644;-88
2023/07/18 10:55:45;;;;;;;3.70;1.70;;;28.70;47.30;;;;;;5057243;28;20187;-88
2023/07/18 10:58:22;;;;;;;2.67;1.73;;;28.60;47.30;;;;;;5056046;28;20179;-88
2023/07/18 11:00:49;;;;;;;2.05;1.60;;;28.70;47.30;;;;;;5056919;28;20282;-88
2023/07/18 11:03:31;;;;;;;2.58;1.67;;;28.60;47.20;;;;;;5055713;28;20222;-88
2023/07/18 11:05:57;;;;;;;2.20;1.70;;;28.60;47.30;;;;;;5058004;28;20498;-88
2023/07/18 11:08:27;;;;;;;2.25;1.60;;;28.60;47.70;;;;;;5055728;28;20177;-88
2023/07/18 11:10:59;;;;;;;2.38;1.65;;;28.70;47.30;;;;;;5059438;28;20184;-89
2023/07/18 11:13:35;;;;;;;1.90;1.50;;;28.60;47.30;;;;;;5056656;28;20537;-89
2023/07/18 11:16:09;;;;;;;2.30;1.75;;;28.60;47.30;;;;;;5057377;28;20664;-89
2023/07/18 11:18:43;;;;;;;2.08;1.55;;;28.60;47.40;;;;;;5054385;28;20209;-89
2023/07/18 11:21:16;;;;;;;2.33;1.70;;;28.60;47.30;;;;;;5034318;28;20606;-89
2023/07/18 11:23:42;;;;;;;3.25;1.75;;;28.60;47.30;;;;;;5051258;28;20477;-89
2023/07/18 11:26:13;;;;;;;1.77;1.38;;;28.60;47.40;;;;;;5054342;28;20497;-88
2023/07/18 11:28:43;;;;;;;1.52;1.42;;;28.70;47.40;;;;;;5056219;28;20183;-89
2023/07/18 11:31:28;;;;;;;2.92;1.75;;;28.60;47.40;;;;;;5052318;28;20208;-88
2023/07/18 11:33:59;;;;;;;2.08;1.60;;;28.60;47.40;;;;;;5055096;28;20192;-88
2023/07/18 11:36:36;;;;;;;1.92;1.70;;;28.60;47.40;;;;;;5053383;28;20251;-89
2023/07/18 11:39:03;;;;;;;2.22;1.50;;;28.60;47.50;;;;;;5052867;28;20612;-88
2023/07/18 11:41:34;;;;;;;2.03;1.58;;;28.60;47.50;;;;;;5052866;28;20540;-89
2023/07/18 11:44:04;;;;;;;1.90;1.42;;;28.60;47.50;;;;;;5052278;28;20171;-89
2023/07/18 11:46:46;;;;;;;2.03;1.52;;;28.60;47.50;;;;;;5056080;28;20192;-89
2023/07/18 11:49:13;;;;;;;2.60;1.50;;;28.70;47.90;;;;;;5035005;28;20189;-89
2023/07/18 11:51:45;;;;;;;2.25;1.42;;;28.70;47.50;;;;;;5056479;28;20420;-89
2023/07/18 11:54:14;;;;;;;2.22;1.50;;;28.60;47.50;;;;;;5054454;28;20176;-89
2023/07/18 11:56:42;;;;;;;2.83;1.80;;;28.60;47.50;;;;;;5055875;28;20305;-89
2023/07/18 11:59:11;;;;;;;1.77;1.50;;;28.60;47.50;;;;;;5053829;28;20740;-90
2023/07/18 12:01:37;;;;;;;2.35;1.88;;;28.60;47.60;;;;;;5057455;28;20258;-89
2023/07/18 12:04:10;;;;;;;2.47;1.73;;;28.60;47.60;;;;;;5050915;28;20173;-89
2023/07/18 12:06:39;;;;;;;2.10;1.58;;;28.60;47.60;;;;;;5049530;28;20177;-89
2023/07/18 12:09:05;;;;;;;2.17;1.50;;;28.60;47.60;;;;;;5050037;28;20284;-89
2023/07/18 12:11:34;;;;;;;1.98;1.70;;;28.60;47.60;;;;;;5068495;28;20187;-90
2023/07/18 12:14:02;;;;;;;1.75;1.42;;;28.60;47.70;;;;;;5055944;28;20219;-89
2023/07/18 12:16:28;;;;;;;2.00;1.70;;;28.60;47.70;;;;;;5056437;28;20171;-88
2023/07/18 12:18:56;;;;;;;1.98;1.50;;;28.60;47.70;;;;;;5068455;28;20203;-88
2023/07/18 12:21:24;;;;;;;3.17;1.50;;;28.60;47.60;;;;;;5053191;28;20175;-88
2023/07/18 12:23:53;;;;;;;1.90;1.67;;;28.70;47.70;;;;;;5049374;28;20184;-88
2023/07/18 12:26:22;;;;;;;1.77;1.55;;;28.60;47.70;;;;;;5051998;28;20191;-90
2023/07/18 12:28:51;;;;;;;1.60;1.50;;;28.60;47.70;;;;;;5046805;28;20219;-89
2023/07/18 12:31:17;;;;;;;2.13;1.63;;;28.60;47.80;;;;;;5054042;28;20282;-90
2023/07/18 12:33:43;;;;;;;2.97;1.67;;;28.60;47.80;;;;;;5064060;28;20479;-89
2023/07/18 12:36:09;;;;;;;1.63;1.33;;;28.60;47.80;;;;;;5048729;28;20238;-89
2023/07/18 12:38:34;;;;;;;2.15;1.73;;;28.60;47.80;;;;;;5050763;28;20183;-89
2023/07/18 12:41:00;;;;;;;1.60;1.50;;;28.60;47.80;;;;;;5046611;28;20172;-89
2023/07/18 12:43:26;;;;;;;1.55;1.45;;;28.60;47.80;;;;;;5050351;28;20172;-89
2023/07/18 12:45:53;;;;;;;1.60;1.50;;;28.60;47.80;;;;;;5051753;28;20176;-89
2023/07/18 12:48:19;;;;;;;2.75;1.67;;;28.60;47.90;;;;;;5067698;28;20180;-89
2023/07/18 12:50:44;;;;;;;2.20;1.63;;;28.50;47.80;;;;;;5068141;28;20465;-89
2023/07/18 12:53:10;;;;;;;2.10;1.45;;;28.50;47.80;;;;;;5053648;28;20420;-90